sensor_id;sensor_type;location;lat;lon;timestamp;P1;durP1;ratioP1;P2;durP2;ratioP2
45714;SDS011;31430;61.646;24.704;2023-04-25T00:01:14;33.03;;;30.95;;
45714;SDS011;31430;61.646;24.704;2023-04-25T00:03:40;33.40;;;31.30;;
45714;SDS011;31430;61.646;24.704;2023-04-25T00:20:40;58.17;;;54.58;;
45714;SDS011;31430;61.646;24.704;2023-04-25T00:23:15;49.22;;;46.17;;
45714;SDS011;31430;61.646;24.704;2023-04-25T00:25:47;43.03;;;40.33;;
45714;SDS011;31430;61.646;24.704;2023-04-25T00:28:13;40.30;;;37.80;;
45714;SDS011;31430;61.646;24.704;2023-04-25T00:30:40;37.25;;;34.95;;
45714;SDS011;31430;61.646;24.704;2023-04-25T00:33:06;37.42;;;35.10;;
45714;SDS011;31430;61.646;24.704;2023-04-25T00:35:33;35.40;;;33.20;;
45714;SDS011;31430;61.646;24.704;2023-04-25T00:40:24;35.78;;;33.55;;
45714;SDS011;31430;61.646;24.704;2023-04-25T00:42:53;34.45;;;32.30;;
45714;SDS011;31430;61.646;24.704;2023-04-25T00:45:19;34.78;;;32.60;;
45714;SDS011;31430;61.646;24.704;2023-04-25T00:47:45;33.40;;;31.30;;
45714;SDS011;31430;61.646;24.704;2023-04-25T00:50:12;33.47;;;31.38;;
45714;SDS011;31430;61.646;24.704;2023-04-25T00:52:39;34.22;;;32.10;;
45714;SDS011;31430;61.646;24.704;2023-04-25T00:55:06;33.42;;;31.33;;
45714;SDS011;31430;61.646;24.704;2023-04-25T00:57:33;32.63;;;30.60;;
45714;SDS011;31430;61.646;24.704;2023-04-25T00:59:59;32.47;;;30.48;;
45714;SDS011;31430;61.646;24.704;2023-04-25T01:04:52;32.97;;;30.90;;
45714;SDS011;31430;61.646;24.704;2023-04-25T01:09:45;35.00;;;32.80;;
45714;SDS011;31430;61.646;24.704;2023-04-25T01:12:11;32.33;;;30.33;;
45714;SDS011;31430;61.646;24.704;2023-04-25T01:14:37;33.85;;;31.75;;
45714;SDS011;31430;61.646;24.704;2023-04-25T01:17:03;32.80;;;30.75;;
45714;SDS011;31430;61.646;24.704;2023-04-25T01:19:29;32.03;;;30.02;;
45714;SDS011;31430;61.646;24.704;2023-04-25T01:21:55;33.05;;;30.98;;
45714;SDS011;31430;61.646;24.704;2023-04-25T01:24:22;34.08;;;31.95;;
45714;SDS011;31430;61.646;24.704;2023-04-25T01:29:19;35.33;;;33.13;;
45714;SDS011;31430;61.646;24.704;2023-04-25T01:31:45;33.35;;;31.25;;
45714;SDS011;31430;61.646;24.704;2023-04-25T01:34:11;34.00;;;31.90;;
45714;SDS011;31430;61.646;24.704;2023-04-25T01:36:38;32.50;;;30.50;;
45714;SDS011;31430;61.646;24.704;2023-04-25T01:39:05;32.83;;;30.77;;
45714;SDS011;31430;61.646;24.704;2023-04-25T01:43:56;34.67;;;32.50;;
45714;SDS011;31430;61.646;24.704;2023-04-25T01:46:22;33.45;;;31.35;;
45714;SDS011;31430;61.646;24.704;2023-04-25T01:48:48;33.20;;;31.10;;
45714;SDS011;31430;61.646;24.704;2023-04-25T01:51:14;32.78;;;30.73;;
45714;SDS011;31430;61.646;24.704;2023-04-25T01:56:05;35.03;;;32.83;;
45714;SDS011;31430;61.646;24.704;2023-04-25T01:58:31;33.80;;;31.70;;
45714;SDS011;31430;61.646;24.704;2023-04-25T02:00:57;34.13;;;32.00;;
45714;SDS011;31430;61.646;24.704;2023-04-25T02:03:26;34.05;;;31.95;;
45714;SDS011;31430;61.646;24.704;2023-04-25T02:05:52;34.13;;;32.00;;
45714;SDS011;31430;61.646;24.704;2023-04-25T02:08:18;34.42;;;32.28;;
45714;SDS011;31430;61.646;24.704;2023-04-25T02:10:43;33.53;;;31.42;;
45714;SDS011;31430;61.646;24.704;2023-04-25T02:13:09;33.47;;;31.38;;
45714;SDS011;31430;61.646;24.704;2023-04-25T02:15:35;32.80;;;30.75;;
45714;SDS011;31430;61.646;24.704;2023-04-25T02:18:01;33.47;;;31.38;;
45714;SDS011;31430;61.646;24.704;2023-04-25T02:20:27;34.10;;;32.00;;
45714;SDS011;31430;61.646;24.704;2023-04-25T02:22:54;32.85;;;30.80;;
45714;SDS011;31430;61.646;24.704;2023-04-25T02:25:19;33.42;;;31.33;;
45714;SDS011;31430;61.646;24.704;2023-04-25T02:27:46;34.15;;;32.03;;
45714;SDS011;31430;61.646;24.704;2023-04-25T02:30:12;32.90;;;30.85;;
45714;SDS011;31430;61.646;24.704;2023-04-25T02:32:38;32.80;;;30.75;;
45714;SDS011;31430;61.646;24.704;2023-04-25T02:35:05;33.17;;;31.08;;
45714;SDS011;31430;61.646;24.704;2023-04-25T02:37:31;33.92;;;31.83;;
45714;SDS011;31430;61.646;24.704;2023-04-25T02:39:58;33.35;;;31.25;;
45714;SDS011;31430;61.646;24.704;2023-04-25T02:42:24;32.67;;;30.65;;
45714;SDS011;31430;61.646;24.704;2023-04-25T02:44:51;33.45;;;31.35;;
45714;SDS011;31430;61.646;24.704;2023-04-25T02:47:17;33.28;;;31.17;;
45714;SDS011;31430;61.646;24.704;2023-04-25T02:49:43;31.67;;;29.67;;
45714;SDS011;31430;61.646;24.704;2023-04-25T02:52:08;31.58;;;29.58;;
45714;SDS011;31430;61.646;24.704;2023-04-25T02:54:34;32.22;;;30.23;;
45714;SDS011;31430;61.646;24.704;2023-04-25T02:57:00;31.95;;;29.95;;
45714;SDS011;31430;61.646;24.704;2023-04-25T02:59:27;32.85;;;30.80;;
45714;SDS011;31430;61.646;24.704;2023-04-25T03:01:53;33.00;;;30.92;;
45714;SDS011;31430;61.646;24.704;2023-04-25T03:06:46;34.42;;;32.28;;
45714;SDS011;31430;61.646;24.704;2023-04-25T03:09:11;32.78;;;30.73;;
45714;SDS011;31430;61.646;24.704;2023-04-25T03:11:40;33.05;;;30.98;;
45714;SDS011;31430;61.646;24.704;2023-04-25T03:14:06;33.42;;;31.33;;
45714;SDS011;31430;61.646;24.704;2023-04-25T03:16:32;32.67;;;30.65;;
45714;SDS011;31430;61.646;24.704;2023-04-25T03:18:57;32.38;;;30.38;;
45714;SDS011;31430;61.646;24.704;2023-04-25T03:21:23;33.60;;;31.50;;
45714;SDS011;31430;61.646;24.704;2023-04-25T03:23:49;32.80;;;30.75;;
45714;SDS011;31430;61.646;24.704;2023-04-25T03:26:14;32.45;;;30.45;;
45714;SDS011;31430;61.646;24.704;2023-04-25T03:28:40;33.00;;;30.92;;
45714;SDS011;31430;61.646;24.704;2023-04-25T03:33:32;35.00;;;32.80;;
45714;SDS011;31430;61.646;24.704;2023-04-25T03:35:57;33.35;;;31.25;;
45714;SDS011;31430;61.646;24.704;2023-04-25T03:38:23;33.33;;;31.23;;
45714;SDS011;31430;61.646;24.704;2023-04-25T03:40:49;32.35;;;30.35;;
45714;SDS011;31430;61.646;24.704;2023-04-25T03:43:15;32.53;;;30.50;;
45714;SDS011;31430;61.646;24.704;2023-04-25T03:45:41;32.25;;;30.25;;
45714;SDS011;31430;61.646;24.704;2023-04-25T03:48:07;32.22;;;30.23;;
45714;SDS011;31430;61.646;24.704;2023-04-25T03:50:33;32.03;;;30.02;;
45714;SDS011;31430;61.646;24.704;2023-04-25T03:52:59;32.67;;;30.65;;
45714;SDS011;31430;61.646;24.704;2023-04-25T03:55:25;32.35;;;30.35;;
45714;SDS011;31430;61.646;24.704;2023-04-25T03:57:50;32.75;;;30.70;;
45714;SDS011;31430;61.646;24.704;2023-04-25T04:00:16;31.90;;;29.90;;
45714;SDS011;31430;61.646;24.704;2023-04-25T04:02:42;32.15;;;30.15;;
45714;SDS011;31430;61.646;24.704;2023-04-25T04:05:07;32.53;;;30.50;;
45714;SDS011;31430;61.646;24.704;2023-04-25T04:07:34;32.72;;;30.67;;
45714;SDS011;31430;61.646;24.704;2023-04-25T04:10:04;32.20;;;30.20;;
45714;SDS011;31430;61.646;24.704;2023-04-25T04:12:32;31.92;;;29.92;;
45714;SDS011;31430;61.646;24.704;2023-04-25T04:14:58;31.90;;;29.90;;
45714;SDS011;31430;61.646;24.704;2023-04-25T04:17:24;30.60;;;28.70;;
45714;SDS011;31430;61.646;24.704;2023-04-25T04:22:15;34.95;;;32.75;;
45714;SDS011;31430;61.646;24.704;2023-04-25T04:24:41;32.97;;;30.90;;
45714;SDS011;31430;61.646;24.704;2023-04-25T04:27:11;33.33;;;31.23;;
45714;SDS011;31430;61.646;24.704;2023-04-25T04:29:37;32.20;;;30.20;;
45714;SDS011;31430;61.646;24.704;2023-04-25T04:32:03;33.30;;;31.20;;
45714;SDS011;31430;61.646;24.704;2023-04-25T04:36:56;34.10;;;32.00;;
45714;SDS011;31430;61.646;24.704;2023-04-25T04:39:21;33.53;;;31.42;;
45714;SDS011;31430;61.646;24.704;2023-04-25T04:41:47;33.97;;;31.88;;
45714;SDS011;31430;61.646;24.704;2023-04-25T04:44:13;34.08;;;31.95;;
45714;SDS011;31430;61.646;24.704;2023-04-25T04:46:39;32.80;;;30.75;;
45714;SDS011;31430;61.646;24.704;2023-04-25T04:49:09;33.08;;;31.00;;
45714;SDS011;31430;61.646;24.704;2023-04-25T04:51:36;32.83;;;30.77;;
45714;SDS011;31430;61.646;24.704;2023-04-25T04:54:02;31.80;;;29.80;;
45714;SDS011;31430;61.646;24.704;2023-04-25T04:56:29;32.03;;;30.02;;
45714;SDS011;31430;61.646;24.704;2023-04-25T04:58:58;32.40;;;30.40;;
45714;SDS011;31430;61.646;24.704;2023-04-25T05:01:25;32.70;;;30.65;;
45714;SDS011;31430;61.646;24.704;2023-04-25T05:03:51;32.00;;;30.00;;
45714;SDS011;31430;61.646;24.704;2023-04-25T05:08:43;33.22;;;31.13;;
45714;SDS011;31430;61.646;24.704;2023-04-25T05:11:09;33.05;;;30.98;;
45714;SDS011;31430;61.646;24.704;2023-04-25T05:13:36;33.30;;;31.20;;
45714;SDS011;31430;61.646;24.704;2023-04-25T05:16:02;31.48;;;29.50;;
45714;SDS011;31430;61.646;24.704;2023-04-25T05:18:28;33.05;;;30.98;;
45714;SDS011;31430;61.646;24.704;2023-04-25T05:20:53;32.55;;;30.55;;
45714;SDS011;31430;61.646;24.704;2023-04-25T05:23:19;32.22;;;30.23;;
45714;SDS011;31430;61.646;24.704;2023-04-25T05:25:45;31.60;;;29.60;;
45714;SDS011;31430;61.646;24.704;2023-04-25T05:28:16;32.05;;;30.05;;
45714;SDS011;31430;61.646;24.704;2023-04-25T05:30:42;31.52;;;29.52;;
45714;SDS011;31430;61.646;24.704;2023-04-25T05:33:08;31.90;;;29.90;;
45714;SDS011;31430;61.646;24.704;2023-04-25T05:35:33;33.00;;;30.92;;
45714;SDS011;31430;61.646;24.704;2023-04-25T05:37:59;32.55;;;30.52;;
45714;SDS011;31430;61.646;24.704;2023-04-25T05:40:25;32.97;;;30.90;;
45714;SDS011;31430;61.646;24.704;2023-04-25T05:42:51;31.95;;;29.95;;
45714;SDS011;31430;61.646;24.704;2023-04-25T05:45:16;32.75;;;30.70;;
45714;SDS011;31430;61.646;24.704;2023-04-25T05:47:42;32.05;;;30.05;;
45714;SDS011;31430;61.646;24.704;2023-04-25T05:50:08;31.85;;;29.85;;
45714;SDS011;31430;61.646;24.704;2023-04-25T05:52:34;32.80;;;30.75;;
45714;SDS011;31430;61.646;24.704;2023-04-25T05:55:00;31.80;;;29.80;;
45714;SDS011;31430;61.646;24.704;2023-04-25T05:57:26;32.47;;;30.48;;
45714;SDS011;31430;61.646;24.704;2023-04-25T05:59:52;32.25;;;30.25;;
45714;SDS011;31430;61.646;24.704;2023-04-25T06:04:45;33.70;;;31.60;;
45714;SDS011;31430;61.646;24.704;2023-04-25T06:07:11;34.35;;;32.20;;
45714;SDS011;31430;61.646;24.704;2023-04-25T06:09:36;32.50;;;30.50;;
45714;SDS011;31430;61.646;24.704;2023-04-25T06:12:04;32.42;;;30.42;;
45714;SDS011;31430;61.646;24.704;2023-04-25T06:14:30;32.30;;;30.30;;
45714;SDS011;31430;61.646;24.704;2023-04-25T06:16:56;32.63;;;30.60;;
45714;SDS011;31430;61.646;24.704;2023-04-25T06:19:22;32.50;;;30.50;;
45714;SDS011;31430;61.646;24.704;2023-04-25T06:21:47;32.58;;;30.55;;
45714;SDS011;31430;61.646;24.704;2023-04-25T06:24:13;31.88;;;29.88;;
45714;SDS011;31430;61.646;24.704;2023-04-25T06:26:38;32.83;;;30.77;;
45714;SDS011;31430;61.646;24.704;2023-04-25T06:29:04;32.22;;;30.23;;
45714;SDS011;31430;61.646;24.704;2023-04-25T06:31:30;31.30;;;29.33;;
45714;SDS011;31430;61.646;24.704;2023-04-25T06:33:58;31.75;;;29.75;;
45714;SDS011;31430;61.646;24.704;2023-04-25T06:36:23;32.63;;;30.60;;
45714;SDS011;31430;61.646;24.704;2023-04-25T06:38:52;31.55;;;29.55;;
45714;SDS011;31430;61.646;24.704;2023-04-25T06:41:19;32.28;;;30.27;;
45714;SDS011;31430;61.646;24.704;2023-04-25T06:43:45;33.00;;;30.92;;
45714;SDS011;31430;61.646;24.704;2023-04-25T06:46:11;32.08;;;30.08;;
45714;SDS011;31430;61.646;24.704;2023-04-25T06:48:37;31.98;;;29.98;;
45714;SDS011;31430;61.646;24.704;2023-04-25T06:51:03;32.65;;;30.63;;
45714;SDS011;31430;61.646;24.704;2023-04-25T06:53:29;32.63;;;30.60;;
45714;SDS011;31430;61.646;24.704;2023-04-25T06:55:54;33.08;;;31.00;;
45714;SDS011;31430;61.646;24.704;2023-04-25T06:58:20;31.55;;;29.55;;
45714;SDS011;31430;61.646;24.704;2023-04-25T07:00:46;32.08;;;30.08;;
45714;SDS011;31430;61.646;24.704;2023-04-25T07:03:12;30.25;;;28.35;;
45714;SDS011;31430;61.646;24.704;2023-04-25T07:05:37;31.50;;;29.50;;
45714;SDS011;31430;61.646;24.704;2023-04-25T07:08:03;31.38;;;29.42;;
45714;SDS011;31430;61.646;24.704;2023-04-25T07:10:29;32.45;;;30.45;;
45714;SDS011;31430;61.646;24.704;2023-04-25T07:12:55;32.88;;;30.83;;
45714;SDS011;31430;61.646;24.704;2023-04-25T07:15:20;31.52;;;29.52;;
45714;SDS011;31430;61.646;24.704;2023-04-25T07:17:46;31.35;;;29.38;;
45714;SDS011;31430;61.646;24.704;2023-04-25T07:20:12;30.75;;;28.85;;
45714;SDS011;31430;61.646;24.704;2023-04-25T07:22:37;32.63;;;30.60;;
45714;SDS011;31430;61.646;24.704;2023-04-25T07:25:03;32.00;;;30.00;;
45714;SDS011;31430;61.646;24.704;2023-04-25T07:27:29;32.03;;;30.02;;
45714;SDS011;31430;61.646;24.704;2023-04-25T07:29:55;32.35;;;30.35;;
45714;SDS011;31430;61.646;24.704;2023-04-25T07:32:21;31.52;;;29.52;;
45714;SDS011;31430;61.646;24.704;2023-04-25T07:34:46;31.90;;;29.90;;
45714;SDS011;31430;61.646;24.704;2023-04-25T07:37:12;30.85;;;28.92;;
45714;SDS011;31430;61.646;24.704;2023-04-25T07:39:39;31.90;;;29.90;;
45714;SDS011;31430;61.646;24.704;2023-04-25T07:42:05;32.75;;;30.70;;
45714;SDS011;31430;61.646;24.704;2023-04-25T07:44:33;32.40;;;30.40;;
45714;SDS011;31430;61.646;24.704;2023-04-25T07:47:04;30.75;;;28.85;;
45714;SDS011;31430;61.646;24.704;2023-04-25T07:49:32;32.20;;;30.20;;
45714;SDS011;31430;61.646;24.704;2023-04-25T07:51:59;31.33;;;29.35;;
45714;SDS011;31430;61.646;24.704;2023-04-25T07:54:25;31.02;;;29.10;;
45714;SDS011;31430;61.646;24.704;2023-04-25T07:56:51;31.10;;;29.15;;
45714;SDS011;31430;61.646;24.704;2023-04-25T07:59:17;30.33;;;28.42;;
45714;SDS011;31430;61.646;24.704;2023-04-25T08:01:42;32.10;;;30.10;;
45714;SDS011;31430;61.646;24.704;2023-04-25T08:04:08;31.75;;;29.75;;
45714;SDS011;31430;61.646;24.704;2023-04-25T08:06:34;30.45;;;28.55;;
45714;SDS011;31430;61.646;24.704;2023-04-25T08:09:01;32.53;;;30.50;;
45714;SDS011;31430;61.646;24.704;2023-04-25T08:11:26;31.50;;;29.52;;
45714;SDS011;31430;61.646;24.704;2023-04-25T08:13:52;30.40;;;28.50;;
45714;SDS011;31430;61.646;24.704;2023-04-25T08:16:18;31.92;;;29.92;;
45714;SDS011;31430;61.646;24.704;2023-04-25T08:18:43;30.17;;;28.27;;
45714;SDS011;31430;61.646;24.704;2023-04-25T08:21:09;31.05;;;29.13;;
45714;SDS011;31430;61.646;24.704;2023-04-25T08:23:36;31.85;;;29.85;;
45714;SDS011;31430;61.646;24.704;2023-04-25T08:26:02;30.40;;;28.50;;
45714;SDS011;31430;61.646;24.704;2023-04-25T08:28:28;30.30;;;28.40;;
45714;SDS011;31430;61.646;24.704;2023-04-25T08:30:54;29.88;;;28.00;;
45714;SDS011;31430;61.646;24.704;2023-04-25T08:33:19;30.60;;;28.70;;
45714;SDS011;31430;61.646;24.704;2023-04-25T08:35:45;31.20;;;29.25;;
45714;SDS011;31430;61.646;24.704;2023-04-25T08:38:11;29.60;;;27.75;;
45714;SDS011;31430;61.646;24.704;2023-04-25T08:40:37;30.00;;;28.10;;
45714;SDS011;31430;61.646;24.704;2023-04-25T08:43:05;29.50;;;27.65;;
45714;SDS011;31430;61.646;24.704;2023-04-25T08:45:36;30.23;;;28.33;;
45714;SDS011;31430;61.646;24.704;2023-04-25T08:48:09;29.88;;;27.98;;
45714;SDS011;31430;61.646;24.704;2023-04-25T08:50:40;30.75;;;28.85;;
45714;SDS011;31430;61.646;24.704;2023-04-25T08:53:28;30.23;;;28.33;;
45714;SDS011;31430;61.646;24.704;2023-04-25T08:55:55;29.70;;;27.83;;
45714;SDS011;31430;61.646;24.704;2023-04-25T08:58:22;29.08;;;27.27;;
45714;SDS011;31430;61.646;24.704;2023-04-25T09:00:48;29.25;;;27.45;;
45714;SDS011;31430;61.646;24.704;2023-04-25T09:03:15;30.05;;;28.15;;
45714;SDS011;31430;61.646;24.704;2023-04-25T09:05:41;28.98;;;27.17;;
45714;SDS011;31430;61.646;24.704;2023-04-25T09:08:07;30.05;;;28.15;;
45714;SDS011;31430;61.646;24.704;2023-04-25T09:10:33;28.90;;;27.10;;
45714;SDS011;31430;61.646;24.704;2023-04-25T09:13:02;28.80;;;27.00;;
45714;SDS011;31430;61.646;24.704;2023-04-25T09:15:37;28.25;;;26.45;;
45714;SDS011;31430;61.646;24.704;2023-04-25T09:18:25;28.73;;;26.92;;
45714;SDS011;31430;61.646;24.704;2023-04-25T09:20:55;28.15;;;26.38;;
45714;SDS011;31430;61.646;24.704;2023-04-25T09:23:23;27.98;;;26.23;;
45714;SDS011;31430;61.646;24.704;2023-04-25T09:25:52;27.50;;;25.80;;
45714;SDS011;31430;61.646;24.704;2023-04-25T09:28:25;27.95;;;26.17;;
45714;SDS011;31430;61.646;24.704;2023-04-25T09:30:56;28.48;;;26.67;;
45714;SDS011;31430;61.646;24.704;2023-04-25T09:33:29;28.25;;;26.45;;
45714;SDS011;31430;61.646;24.704;2023-04-25T09:36:09;26.77;;;25.08;;
45714;SDS011;31430;61.646;24.704;2023-04-25T09:38:40;28.73;;;26.92;;
45714;SDS011;31430;61.646;24.704;2023-04-25T09:41:07;27.88;;;26.13;;
45714;SDS011;31430;61.646;24.704;2023-04-25T09:43:33;26.95;;;25.25;;
45714;SDS011;31430;61.646;24.704;2023-04-25T09:46:00;27.85;;;26.10;;
45714;SDS011;31430;61.646;24.704;2023-04-25T09:48:26;27.38;;;25.67;;
45714;SDS011;31430;61.646;24.704;2023-04-25T09:53:38;27.90;;;26.15;;
45714;SDS011;31430;61.646;24.704;2023-04-25T09:56:06;27.42;;;25.73;;
45714;SDS011;31430;61.646;24.704;2023-04-25T09:58:34;27.08;;;25.38;;
45714;SDS011;31430;61.646;24.704;2023-04-25T10:01:05;26.73;;;25.02;;
45714;SDS011;31430;61.646;24.704;2023-04-25T10:03:35;28.27;;;26.48;;
45714;SDS011;31430;61.646;24.704;2023-04-25T10:06:08;27.05;;;25.35;;
45714;SDS011;31430;61.646;24.704;2023-04-25T10:08:43;27.13;;;25.42;;
45714;SDS011;31430;61.646;24.704;2023-04-25T10:11:09;26.33;;;24.67;;
45714;SDS011;31430;61.646;24.704;2023-04-25T10:16:02;28.20;;;26.42;;
45714;SDS011;31430;61.646;24.704;2023-04-25T10:18:29;27.95;;;26.20;;
45714;SDS011;31430;61.646;24.704;2023-04-25T10:20:58;26.80;;;25.10;;
45714;SDS011;31430;61.646;24.704;2023-04-25T10:23:25;27.13;;;25.42;;
45714;SDS011;31430;61.646;24.704;2023-04-25T10:25:52;25.92;;;24.33;;
45714;SDS011;31430;61.646;24.704;2023-04-25T10:28:19;25.88;;;24.27;;
45714;SDS011;31430;61.646;24.704;2023-04-25T10:31:04;27.45;;;25.75;;
45714;SDS011;31430;61.646;24.704;2023-04-25T10:33:36;27.95;;;26.20;;
45714;SDS011;31430;61.646;24.704;2023-04-25T10:38:35;28.58;;;26.77;;
45714;SDS011;31430;61.646;24.704;2023-04-25T10:41:04;27.73;;;26.00;;
45714;SDS011;31430;61.646;24.704;2023-04-25T10:43:40;28.80;;;27.00;;
45714;SDS011;31430;61.646;24.704;2023-04-25T10:48:49;27.80;;;26.07;;
45714;SDS011;31430;61.646;24.704;2023-04-25T10:51:22;27.45;;;25.75;;
45714;SDS011;31430;61.646;24.704;2023-04-25T10:54:01;28.13;;;26.35;;
45714;SDS011;31430;61.646;24.704;2023-04-25T10:56:28;28.52;;;26.73;;
45714;SDS011;31430;61.646;24.704;2023-04-25T10:59:29;26.90;;;25.20;;
45714;SDS011;31430;61.646;24.704;2023-04-25T11:01:53;27.25;;;25.55;;
45714;SDS011;31430;61.646;24.704;2023-04-25T11:09:29;27.33;;;25.63;;
45714;SDS011;31430;61.646;24.704;2023-04-25T11:11:56;27.75;;;26.02;;
45714;SDS011;31430;61.646;24.704;2023-04-25T11:14:23;26.52;;;24.83;;
45714;SDS011;31430;61.646;24.704;2023-04-25T11:16:56;26.58;;;24.88;;
45714;SDS011;31430;61.646;24.704;2023-04-25T11:19:23;26.42;;;24.75;;
45714;SDS011;31430;61.646;24.704;2023-04-25T11:21:49;26.13;;;24.50;;
45714;SDS011;31430;61.646;24.704;2023-04-25T11:24:16;27.73;;;26.00;;
45714;SDS011;31430;61.646;24.704;2023-04-25T11:26:42;25.88;;;24.27;;
45714;SDS011;31430;61.646;24.704;2023-04-25T11:29:09;25.65;;;24.05;;
45714;SDS011;31430;61.646;24.704;2023-04-25T11:34:00;27.13;;;25.42;;
45714;SDS011;31430;61.646;24.704;2023-04-25T11:36:26;25.23;;;23.63;;
45714;SDS011;31430;61.646;24.704;2023-04-25T11:38:52;26.42;;;24.75;;
45714;SDS011;31430;61.646;24.704;2023-04-25T11:41:21;25.77;;;24.17;;
45714;SDS011;31430;61.646;24.704;2023-04-25T11:43:47;25.98;;;24.38;;
45714;SDS011;31430;61.646;24.704;2023-04-25T11:46:15;25.70;;;24.10;;
45714;SDS011;31430;61.646;24.704;2023-04-25T11:48:41;26.17;;;24.55;;
45714;SDS011;31430;61.646;24.704;2023-04-25T11:51:07;25.77;;;24.17;;
45714;SDS011;31430;61.646;24.704;2023-04-25T11:53:33;25.60;;;24.00;;
45714;SDS011;31430;61.646;24.704;2023-04-25T11:56:00;25.05;;;23.45;;
45714;SDS011;31430;61.646;24.704;2023-04-25T12:00:52;26.58;;;24.88;;
45714;SDS011;31430;61.646;24.704;2023-04-25T12:03:18;25.48;;;23.88;;
45714;SDS011;31430;61.646;24.704;2023-04-25T12:08:11;27.00;;;25.30;;
45714;SDS011;31430;61.646;24.704;2023-04-25T12:10:43;25.45;;;23.85;;
45714;SDS011;31430;61.646;24.704;2023-04-25T12:15:49;25.15;;;23.55;;
45714;SDS011;31430;61.646;24.704;2023-04-25T12:18:14;23.52;;;22.02;;
45714;SDS011;31430;61.646;24.704;2023-04-25T12:20:43;23.75;;;22.25;;
45714;SDS011;31430;61.646;24.704;2023-04-25T12:23:09;25.00;;;23.40;;
45714;SDS011;31430;61.646;24.704;2023-04-25T12:25:42;23.02;;;21.58;;
45714;SDS011;31430;61.646;24.704;2023-04-25T12:33:27;23.85;;;22.35;;
45714;SDS011;31430;61.646;24.704;2023-04-25T12:35:54;23.90;;;22.40;;
45714;SDS011;31430;61.646;24.704;2023-04-25T12:38:27;23.58;;;22.08;;
45714;SDS011;31430;61.646;24.704;2023-04-25T12:40:58;22.65;;;21.25;;
45714;SDS011;31430;61.646;24.704;2023-04-25T12:43:24;22.55;;;21.15;;
45714;SDS011;31430;61.646;24.704;2023-04-25T12:45:51;22.92;;;21.50;;
45714;SDS011;31430;61.646;24.704;2023-04-25T12:48:18;23.25;;;21.77;;
45714;SDS011;31430;61.646;24.704;2023-04-25T12:50:44;22.35;;;20.95;;
45714;SDS011;31430;61.646;24.704;2023-04-25T12:53:13;22.67;;;21.27;;
45714;SDS011;31430;61.646;24.704;2023-04-25T12:55:38;23.60;;;22.10;;
45714;SDS011;31430;61.646;24.704;2023-04-25T12:58:04;22.15;;;20.75;;
45714;SDS011;31430;61.646;24.704;2023-04-25T13:00:30;21.85;;;20.45;;
45714;SDS011;31430;61.646;24.704;2023-04-25T13:02:56;22.73;;;21.33;;
45714;SDS011;31430;61.646;24.704;2023-04-25T13:05:22;22.65;;;21.25;;
45714;SDS011;31430;61.646;24.704;2023-04-25T13:07:48;23.38;;;21.88;;
45714;SDS011;31430;61.646;24.704;2023-04-25T13:10:14;22.58;;;21.17;;
45714;SDS011;31430;61.646;24.704;2023-04-25T13:15:06;23.55;;;22.05;;
45714;SDS011;31430;61.646;24.704;2023-04-25T13:17:34;22.45;;;21.05;;
45714;SDS011;31430;61.646;24.704;2023-04-25T13:19:59;22.25;;;20.85;;
45714;SDS011;31430;61.646;24.704;2023-04-25T13:22:25;22.35;;;20.95;;
45714;SDS011;31430;61.646;24.704;2023-04-25T13:24:51;22.35;;;20.95;;
45714;SDS011;31430;61.646;24.704;2023-04-25T13:27:16;21.65;;;20.25;;
45714;SDS011;31430;61.646;24.704;2023-04-25T13:29:42;21.65;;;20.25;;
45714;SDS011;31430;61.646;24.704;2023-04-25T13:32:08;21.60;;;20.20;;
45714;SDS011;31430;61.646;24.704;2023-04-25T13:34:34;21.80;;;20.40;;
45714;SDS011;31430;61.646;24.704;2023-04-25T13:37:00;21.40;;;20.05;;
45714;SDS011;31430;61.646;24.704;2023-04-25T13:39:25;21.08;;;19.77;;
45714;SDS011;31430;61.646;24.704;2023-04-25T13:41:54;21.73;;;20.33;;
45714;SDS011;31430;61.646;24.704;2023-04-25T13:44:21;21.77;;;20.38;;
45714;SDS011;31430;61.646;24.704;2023-04-25T13:46:46;20.90;;;19.60;;
45714;SDS011;31430;61.646;24.704;2023-04-25T13:49:12;21.67;;;20.27;;
45714;SDS011;31430;61.646;24.704;2023-04-25T13:51:38;21.52;;;20.15;;
45714;SDS011;31430;61.646;24.704;2023-04-25T13:54:03;21.40;;;20.05;;
45714;SDS011;31430;61.646;24.704;2023-04-25T13:56:29;21.65;;;20.25;;
45714;SDS011;31430;61.646;24.704;2023-04-25T13:58:55;21.48;;;20.10;;
45714;SDS011;31430;61.646;24.704;2023-04-25T14:01:21;22.05;;;20.65;;
45714;SDS011;31430;61.646;24.704;2023-04-25T14:03:47;22.02;;;20.63;;
45714;SDS011;31430;61.646;24.704;2023-04-25T14:06:13;20.85;;;19.55;;
45714;SDS011;31430;61.646;24.704;2023-04-25T14:08:38;20.85;;;19.55;;
45714;SDS011;31430;61.646;24.704;2023-04-25T14:11:04;21.13;;;19.83;;
45714;SDS011;31430;61.646;24.704;2023-04-25T14:13:30;21.95;;;20.55;;
45714;SDS011;31430;61.646;24.704;2023-04-25T14:15:56;21.65;;;20.25;;
45714;SDS011;31430;61.646;24.704;2023-04-25T14:18:22;21.65;;;20.25;;
45714;SDS011;31430;61.646;24.704;2023-04-25T14:20:47;21.30;;;19.98;;
45714;SDS011;31430;61.646;24.704;2023-04-25T14:23:13;21.27;;;19.95;;
45714;SDS011;31430;61.646;24.704;2023-04-25T14:25:39;21.00;;;19.70;;
45714;SDS011;31430;61.646;24.704;2023-04-25T14:28:06;22.23;;;20.83;;
45714;SDS011;31430;61.646;24.704;2023-04-25T14:30:32;21.85;;;20.45;;
45714;SDS011;31430;61.646;24.704;2023-04-25T14:32:58;21.63;;;20.23;;
45714;SDS011;31430;61.646;24.704;2023-04-25T14:35:24;22.60;;;21.20;;
45714;SDS011;31430;61.646;24.704;2023-04-25T14:37:49;21.85;;;20.45;;
45714;SDS011;31430;61.646;24.704;2023-04-25T14:40:15;21.15;;;19.85;;
45714;SDS011;31430;61.646;24.704;2023-04-25T14:42:42;21.40;;;20.05;;
45714;SDS011;31430;61.646;24.704;2023-04-25T14:45:08;21.95;;;20.55;;
45714;SDS011;31430;61.646;24.704;2023-04-25T14:50:01;21.85;;;20.45;;
45714;SDS011;31430;61.646;24.704;2023-04-25T14:52:27;21.75;;;20.35;;
45714;SDS011;31430;61.646;24.704;2023-04-25T14:54:53;21.33;;;19.98;;
45714;SDS011;31430;61.646;24.704;2023-04-25T14:57:18;21.88;;;20.48;;
45714;SDS011;31430;61.646;24.704;2023-04-25T14:59:44;21.70;;;20.30;;
45714;SDS011;31430;61.646;24.704;2023-04-25T15:02:10;21.17;;;19.88;;
45714;SDS011;31430;61.646;24.704;2023-04-25T15:04:36;22.15;;;20.75;;
45714;SDS011;31430;61.646;24.704;2023-04-25T15:07:02;21.15;;;19.85;;
45714;SDS011;31430;61.646;24.704;2023-04-25T15:11:54;22.55;;;21.15;;
45714;SDS011;31430;61.646;24.704;2023-04-25T15:14:20;21.83;;;20.42;;
45714;SDS011;31430;61.646;24.704;2023-04-25T15:16:46;20.67;;;19.38;;
45714;SDS011;31430;61.646;24.704;2023-04-25T15:19:11;21.05;;;19.75;;
45714;SDS011;31430;61.646;24.704;2023-04-25T15:21:37;20.50;;;19.20;;
45714;SDS011;31430;61.646;24.704;2023-04-25T15:24:03;20.58;;;19.27;;
45714;SDS011;31430;61.646;24.704;2023-04-25T15:26:29;21.75;;;20.35;;
45714;SDS011;31430;61.646;24.704;2023-04-25T15:28:54;22.15;;;20.75;;